Deal, New Jersey
Current Conditions -  °F | °C
As of 8:15 PM on Saturday 22 Nov 2014 (Local Time) from KBLM Reporting Station
Scattered Clouds Scattered Clouds  
Wind Chill: 34°   Ceiling: Unl
Heat Index: 41°   Visibility: 10mi
Dew Point: 19°   Wind: 12mph
Humidity: 42%   Direction: 230°SW
Pressure: 30.25"   Gusts: NA
Location:  40.24°N, 74°W
Report Text: KBLM 230115Z AUTO 23010KT 10SM SCT110 05/M07 A3025 RMK AO1
Loading
Personal Weather Stations






























Interactive Weather Map New forecast layout! Learn more

10-Day Weather Forecast

Advertisements
Track Severe Weather on mobile